createdAt,value
2018-04-10T00:00:21.148Z,12.41
2018-04-10T00:01:21.134Z,12.35
2018-04-10T00:02:21.375Z,12.36
2018-04-10T00:03:21.106Z,12.47
2018-04-10T00:04:21.061Z,12.44
2018-04-10T00:05:21.029Z,12.43
2018-04-10T00:06:21.118Z,12.43
2018-04-10T00:07:20.996Z,12.30
2018-04-10T00:08:20.985Z,12.40
2018-04-10T00:09:21.270Z,12.47
2018-04-10T00:10:20.957Z,12.47
2018-04-10T00:11:20.949Z,12.46
2018-04-10T00:12:20.988Z,12.32
2018-04-10T00:13:20.913Z,12.46
2018-04-10T00:14:20.899Z,12.38
2018-04-10T00:15:20.891Z,12.32
2018-04-10T00:17:21.163Z,12.32
2018-04-10T00:18:20.896Z,12.32
2018-04-10T00:19:20.832Z,12.28
2018-04-10T00:20:20.820Z,12.26
2018-04-10T00:21:20.808Z,12.26
2018-04-10T00:22:20.796Z,12.26
2018-04-10T00:23:21.074Z,12.33
2018-04-10T00:24:20.909Z,12.33
2018-04-10T00:25:20.745Z,12.30
2018-04-10T00:27:20.771Z,12.26
2018-04-10T00:28:20.711Z,12.29
2018-04-10T00:29:20.989Z,12.30
2018-04-10T00:30:20.727Z,12.26
2018-04-10T00:31:20.661Z,12.25
2018-04-10T00:32:20.645Z,12.22
2018-04-10T00:33:20.638Z,12.22
2018-04-10T00:34:20.622Z,12.25
2018-04-10T00:35:20.908Z,12.26
2018-04-10T00:36:20.651Z,12.22
2018-04-10T00:37:20.575Z,12.18
2018-04-10T00:38:20.569Z,12.13
2018-04-10T00:39:20.551Z,12.13
2018-04-10T00:40:20.538Z,12.11
2018-04-10T00:41:20.920Z,12.08
2018-04-10T00:42:20.657Z,12.13
2018-04-10T00:43:20.491Z,12.10
2018-04-10T00:44:20.479Z,12.13
2018-04-10T00:45:20.482Z,12.04
2018-04-10T00:46:20.505Z,12.10
2018-04-10T00:47:20.432Z,12.07
2018-04-10T00:48:20.419Z,12.13
2018-04-10T00:49:20.405Z,12.14
2018-04-10T00:50:20.395Z,12.13
2018-04-10T00:51:20.380Z,12.05
2018-04-10T00:52:20.813Z,12.00
2018-04-10T00:53:20.350Z,12.08
2018-04-10T00:55:20.320Z,11.99
2018-04-10T00:56:20.306Z,12.07
2018-04-10T00:57:20.290Z,12.15
2018-04-10T00:58:20.429Z,12.10
2018-04-10T00:59:20.264Z,12.13
2018-04-10T01:00:20.251Z,12.18
2018-04-10T01:01:20.245Z,12.18
2018-04-10T01:02:20.220Z,12.15
2018-04-10T01:03:20.211Z,12.17
2018-04-10T01:04:20.291Z,12.14
2018-04-10T01:05:20.176Z,12.17
2018-04-10T01:06:20.168Z,12.13
2018-04-10T01:07:20.149Z,12.15
2018-04-10T01:08:20.139Z,12.15
2018-04-10T01:09:20.122Z,12.08
2018-04-10T01:10:20.257Z,12.10
2018-04-10T01:11:20.096Z,12.08
2018-04-10T01:12:20.076Z,12.14
2018-04-10T01:13:20.065Z,12.17
2018-04-10T01:14:20.051Z,12.13
2018-04-10T01:15:20.032Z,12.10
2018-04-10T01:16:20.070Z,12.05
2018-04-10T01:17:20.000Z,12.00
2018-04-10T01:18:19.987Z,12.07
2018-04-10T01:19:19.973Z,12.10
2018-04-10T01:21:19.995Z,11.99
2018-04-10T01:22:19.937Z,11.93
2018-04-10T01:23:19.913Z,11.93
2018-04-10T01:25:19.889Z,11.95
2018-04-10T01:26:19.885Z,11.88
2018-04-10T01:27:19.913Z,11.76
2018-04-10T01:28:19.864Z,11.89
2018-04-10T01:29:19.834Z,11.84
2018-04-10T01:30:19.816Z,11.82
2018-04-10T01:31:19.799Z,11.74
2018-04-10T01:32:19.788Z,11.74
2018-04-10T01:33:19.819Z,11.73
2018-04-10T01:34:19.758Z,11.67
2018-04-10T01:35:19.741Z,11.76
2018-04-10T01:36:19.730Z,11.71
2018-04-10T01:37:19.710Z,11.55
2018-04-10T01:38:19.707Z,11.59
2018-04-10T01:39:20.084Z,11.62
2018-04-10T01:40:19.669Z,11.55
2018-04-10T01:41:19.652Z,11.59
2018-04-10T01:42:19.640Z,11.52
2018-04-10T01:43:19.630Z,11.54
2018-04-10T01:44:19.714Z,11.40
2018-04-10T01:45:19.698Z,11.45
2018-04-10T01:46:19.584Z,11.40
2018-04-10T01:47:19.565Z,11.34
2018-04-10T01:48:19.554Z,11.40
2018-04-10T01:55:19.452Z,11.22
2018-04-10T01:56:19.435Z,11.22
2018-04-10T01:57:19.467Z,11.20
2018-04-10T01:58:19.404Z,11.20
2018-04-10T01:59:19.388Z,11.11
2018-04-10T02:00:19.385Z,11.09
2018-04-10T02:01:19.359Z,11.09
2018-04-10T02:02:19.344Z,11.04
2018-04-10T02:03:19.480Z,11.08
2018-04-10T02:04:19.319Z,11.03
2018-04-10T02:05:19.299Z,11.01
2018-04-10T02:12:19.194Z,10.76
2018-04-10T02:13:19.189Z,10.75
2018-04-10T02:14:19.169Z,10.78
2018-04-10T02:16:19.437Z,10.79
2018-04-10T02:17:19.119Z,10.79
2018-04-10T02:18:19.123Z,10.75
2018-04-10T02:19:19.091Z,10.73
2018-04-10T02:20:19.075Z,10.86
2018-04-10T02:21:19.063Z,10.76
2018-04-10T02:23:19.032Z,10.82
2018-04-10T02:24:19.021Z,10.72
2018-04-10T02:25:19.001Z,10.79
2018-04-10T02:26:19.001Z,10.72
2018-04-10T02:27:18.973Z,10.72
2018-04-10T02:28:19.060Z,10.65
2018-04-10T02:29:18.943Z,10.68
2018-04-10T02:30:18.935Z,10.70
2018-04-10T02:31:18.909Z,10.62
2018-04-10T02:32:18.944Z,10.58
2018-04-10T02:33:18.881Z,10.55
2018-04-10T02:34:18.916Z,10.65
2018-04-10T02:35:18.851Z,10.62
2018-04-10T02:36:18.843Z,10.62
2018-04-10T02:38:18.809Z,10.62
2018-04-10T02:39:18.897Z,10.61
2018-04-10T02:40:18.776Z,10.67
2018-04-10T02:41:18.764Z,10.57
2018-04-10T02:42:18.751Z,10.57
2018-04-10T02:43:18.728Z,10.52
2018-04-10T02:46:18.685Z,10.55
2018-04-10T02:47:18.669Z,10.54
2018-04-10T02:48:18.656Z,10.57
2018-04-10T02:49:18.639Z,10.46
2018-04-10T02:50:18.628Z,10.54
2018-04-10T02:51:18.664Z,10.52
2018-04-10T02:52:18.645Z,10.49
2018-04-10T02:53:18.580Z,10.60
2018-04-10T02:54:18.559Z,10.58
2018-04-10T02:56:18.529Z,10.58
2018-04-10T02:57:18.515Z,10.57
2018-04-10T02:58:18.550Z,10.58
2018-04-10T02:59:18.481Z,10.67
2018-04-10T03:00:18.471Z,10.58
2018-04-10T03:01:18.454Z,10.55
2018-04-10T03:02:18.435Z,10.55
2018-04-10T03:03:18.421Z,10.52
2018-04-10T03:04:18.465Z,10.55
2018-04-10T03:05:18.388Z,10.52
2018-04-10T03:06:18.620Z,10.46
2018-04-10T03:07:18.359Z,10.48
2018-04-10T03:08:18.337Z,10.42
2018-04-10T03:09:18.425Z,10.46
2018-04-10T03:10:18.763Z,10.46
2018-04-10T03:11:18.295Z,10.43
2018-04-10T03:12:18.277Z,10.42
2018-04-10T03:13:18.312Z,10.43
2018-04-10T03:14:18.247Z,10.43
2018-04-10T03:15:18.231Z,10.43
2018-04-10T03:16:18.677Z,10.46
2018-04-10T03:17:18.207Z,10.49
2018-04-10T03:18:18.282Z,10.61
2018-04-10T03:19:18.169Z,10.60
2018-04-10T03:20:18.153Z,10.60
2018-04-10T03:21:18.484Z,10.62
2018-04-10T03:22:18.235Z,10.67
2018-04-10T03:23:18.110Z,10.68
2018-04-10T03:24:18.090Z,10.68
2018-04-10T03:25:18.074Z,10.73
2018-04-10T03:26:18.059Z,10.65
2018-04-10T03:27:18.042Z,10.67
2018-04-10T03:28:18.077Z,10.67
2018-04-10T03:29:18.066Z,10.68
2018-04-10T03:30:18.005Z,10.73
2018-04-10T03:31:17.981Z,10.68
2018-04-10T03:32:17.965Z,10.62
2018-04-10T03:33:17.948Z,10.61
2018-04-10T03:34:17.984Z,10.65
2018-04-10T03:35:17.924Z,10.64
2018-04-10T03:36:17.907Z,10.68
2018-04-10T03:37:17.891Z,10.67
2018-04-10T03:38:17.871Z,10.72
2018-04-10T03:39:17.861Z,10.75
2018-04-10T03:40:17.893Z,10.72
2018-04-10T03:41:17.823Z,10.64
2018-04-10T03:42:17.805Z,10.73
2018-04-10T03:43:17.792Z,10.83
2018-04-10T03:44:18.125Z,10.76
2018-04-10T03:45:17.768Z,10.86
2018-04-10T03:46:17.748Z,10.79
2018-04-10T03:47:17.729Z,10.82
2018-04-10T03:48:17.719Z,10.83
2018-04-10T03:49:17.696Z,10.90
2018-04-10T03:50:17.779Z,10.83
2018-04-10T03:51:17.662Z,10.93
2018-04-10T03:52:17.648Z,10.86
2018-04-10T04:00:17.518Z,10.94
2018-04-10T04:01:17.509Z,11.00
2018-04-10T04:02:17.538Z,10.97
2018-04-10T04:03:17.470Z,10.93
2018-04-10T04:04:17.460Z,10.98
2018-04-10T04:05:17.437Z,10.98
2018-04-10T04:06:17.424Z,10.94
2018-04-10T04:07:17.405Z,10.83
2018-04-10T04:08:17.440Z,10.85
2018-04-10T04:09:17.374Z,10.87
2018-04-10T04:10:17.360Z,10.79
2018-04-10T04:11:17.344Z,10.86
2018-04-10T04:12:17.327Z,10.93
2018-04-10T04:13:17.317Z,10.83
2018-04-10T04:14:17.354Z,10.93
2018-04-10T04:15:17.279Z,10.85
2018-04-10T04:16:17.314Z,10.86
2018-04-10T04:17:17.256Z,10.82
2018-04-10T04:18:17.235Z,10.70
2018-04-10T04:19:17.217Z,10.82
2018-04-10T04:20:17.213Z,10.80
2018-04-10T04:21:17.190Z,10.80
2018-04-10T04:22:17.531Z,10.79
2018-04-10T04:23:17.151Z,10.73
2018-04-10T04:24:17.138Z,10.76
2018-04-10T04:25:17.132Z,10.76
2018-04-10T04:26:17.107Z,10.79
2018-04-10T04:27:17.103Z,10.67
2018-04-10T04:28:17.133Z,10.64
2018-04-10T04:29:17.325Z,10.57
2018-04-10T04:30:17.043Z,10.48
2018-04-10T04:31:17.131Z,10.41
2018-04-10T04:33:17.103Z,10.35
2018-04-10T04:34:17.033Z,10.24
2018-04-10T04:35:16.968Z,10.34
2018-04-10T04:36:16.947Z,10.23
2018-04-10T04:37:16.939Z,10.18
2018-04-10T04:38:16.916Z,10.16
2018-04-10T04:39:16.902Z,10.23
2018-04-10T04:40:16.934Z,10.16
2018-04-10T04:41:16.922Z,10.23
2018-04-10T04:42:16.855Z,10.27
2018-04-10T04:43:16.836Z,10.31
2018-04-10T04:44:16.826Z,10.35
2018-04-10T04:45:16.810Z,10.35
2018-04-10T04:46:16.788Z,10.26
2018-04-10T04:47:16.826Z,10.38
2018-04-10T04:48:16.807Z,10.31
2018-04-10T04:49:16.751Z,10.31
2018-04-10T04:50:16.730Z,10.38
2018-04-10T04:51:16.712Z,10.27
2018-04-10T04:52:16.708Z,10.35
2018-04-10T04:53:16.730Z,10.38
2018-04-10T04:54:16.716Z,10.46
2018-04-10T04:55:16.647Z,10.58
2018-04-10T04:56:16.632Z,10.52
2018-04-10T04:57:16.618Z,10.54
2018-04-10T04:59:16.584Z,10.52
2018-04-10T05:00:16.627Z,10.42
2018-04-10T05:01:16.557Z,10.55
2018-04-10T05:02:16.539Z,10.52
2018-04-10T05:03:16.518Z,10.52
2018-04-10T05:04:16.507Z,10.46
2018-04-10T05:05:16.500Z,10.42
2018-04-10T05:06:16.524Z,10.43
2018-04-10T05:07:16.459Z,10.42
2018-04-10T05:08:16.496Z,10.31
2018-04-10T05:09:16.437Z,10.46
2018-04-10T05:10:16.413Z,10.42
2018-04-10T05:11:16.402Z,10.58
2018-04-10T05:12:16.640Z,10.49
2018-04-10T05:13:16.404Z,10.55
2018-04-10T05:14:16.493Z,10.64
2018-04-10T05:15:16.339Z,10.58
2018-04-10T05:16:16.322Z,10.58
2018-04-10T05:17:16.325Z,10.65
2018-04-10T05:18:16.291Z,10.73
2018-04-10T05:19:16.273Z,10.70
2018-04-10T05:20:16.313Z,10.73
2018-04-10T05:21:16.243Z,10.73
2018-04-10T05:22:16.944Z,10.76
2018-04-10T05:30:16.102Z,11.31
2018-04-10T05:31:16.080Z,11.18
2018-04-10T05:32:16.117Z,11.37
2018-04-10T05:33:16.051Z,11.34
2018-04-10T05:34:16.041Z,11.46
2018-04-10T05:35:16.029Z,11.40
2018-04-10T05:36:16.005Z,11.45
2018-04-10T05:37:16.032Z,11.49
2018-04-10T05:38:16.027Z,11.51
2018-04-10T05:39:15.957Z,11.59
2018-04-10T05:40:16.202Z,11.59
2018-04-10T05:41:15.977Z,11.73
2018-04-10T05:42:15.922Z,11.74
2018-04-10T05:43:16.173Z,11.88
2018-04-10T05:44:15.939Z,11.80
2018-04-10T05:45:15.877Z,11.91
2018-04-10T05:46:15.856Z,12.03
2018-04-10T05:47:16.301Z,12.08
2018-04-10T05:48:15.825Z,12.22
2018-04-10T05:49:15.810Z,12.21
2018-04-10T05:50:15.810Z,12.28
2018-04-10T05:51:15.780Z,12.36
2018-04-10T05:52:15.763Z,12.40
2018-04-10T05:53:15.806Z,12.48
2018-04-10T05:54:15.792Z,12.44
2018-04-10T05:55:15.755Z,12.33
2018-04-10T05:56:15.709Z,12.48
2018-04-10T05:57:15.693Z,12.48
2018-04-10T05:58:15.680Z,12.61
2018-04-10T05:59:15.765Z,12.65
2018-04-10T06:00:15.695Z,12.61
2018-04-10T06:01:15.637Z,12.66
2018-04-10T06:02:15.872Z,12.66
2018-04-10T06:03:15.605Z,12.76
2018-04-10T06:04:15.588Z,12.72
2018-04-10T06:05:15.739Z,12.76
2018-04-10T06:07:15.552Z,12.96
2018-04-10T06:08:15.536Z,13.04
2018-04-10T06:09:15.545Z,13.05
2018-04-10T06:10:15.506Z,13.04
2018-04-10T06:11:15.541Z,12.99
2018-04-10T06:12:15.508Z,13.17
2018-04-10T06:13:15.470Z,13.20
2018-04-10T06:14:15.445Z,13.35
2018-04-10T06:15:15.445Z,13.29
2018-04-10T06:16:15.418Z,13.40
2018-04-10T06:17:15.456Z,13.45
2018-04-10T06:18:15.397Z,13.53
2018-04-10T06:19:15.733Z,13.49
2018-04-10T06:20:15.661Z,13.55
2018-04-10T06:21:15.350Z,13.63
2018-04-10T06:22:15.337Z,13.73
2018-04-10T06:23:15.369Z,13.71
2018-04-10T06:24:15.370Z,13.83
2018-04-10T06:25:15.546Z,13.88
2018-04-10T06:26:15.293Z,14.01
2018-04-10T06:27:15.272Z,14.08
2018-04-10T06:28:15.254Z,14.12
2018-04-10T06:29:15.297Z,14.21
2018-04-10T06:30:15.224Z,14.22
2018-04-10T06:31:15.211Z,14.27
2018-04-10T06:32:15.213Z,14.30
2018-04-10T06:33:15.188Z,14.30
2018-04-10T06:34:15.176Z,14.41
2018-04-10T06:35:15.211Z,14.58
2018-04-10T06:36:15.194Z,14.55
2018-04-10T06:37:15.152Z,14.66
2018-04-10T06:38:15.120Z,14.69
2018-04-10T06:39:15.109Z,14.74
2018-04-10T06:40:15.090Z,14.78
2018-04-10T06:41:15.129Z,14.71
2018-04-10T06:42:15.066Z,14.86
2018-04-10T06:43:15.055Z,14.90
2018-04-10T06:44:15.053Z,14.92
2018-04-10T06:45:15.153Z,14.92
2018-04-10T06:46:15.019Z,14.93
2018-04-10T06:47:15.362Z,15.01
2018-04-10T06:48:15.003Z,15.08
2018-04-10T06:49:14.981Z,15.25
2018-04-10T06:50:14.983Z,15.15
2018-04-10T06:51:14.950Z,15.27
2018-04-10T06:52:14.944Z,15.35
2018-04-10T06:54:14.966Z,15.41
2018-04-10T06:55:14.903Z,15.45
2018-04-10T06:56:14.892Z,15.43
2018-04-10T06:57:14.873Z,15.40
2018-04-10T06:59:14.853Z,15.51
2018-04-10T07:00:14.885Z,15.50
2018-04-10T07:02:14.812Z,15.65
2018-04-10T07:03:14.800Z,15.65
2018-04-10T07:05:14.774Z,15.78
2018-04-10T07:06:14.826Z,15.76
2018-04-10T07:07:14.763Z,15.83
2018-04-10T07:08:14.738Z,15.84
2018-04-10T07:09:14.726Z,15.91
2018-04-10T07:10:14.723Z,15.95
2018-04-10T07:11:14.744Z,16.00
2018-04-10T07:12:14.735Z,16.09
2018-04-10T07:13:14.687Z,16.21
2018-04-10T07:14:14.668Z,16.21
2018-04-10T07:15:14.966Z,16.33
2018-04-10T07:16:14.637Z,16.39
2018-04-10T07:17:14.629Z,16.47
2018-04-10T07:18:14.621Z,16.57
2018-04-10T07:20:14.591Z,16.54
2018-04-10T07:21:14.629Z,16.55
2018-04-10T07:22:14.566Z,16.55
2018-04-10T07:23:14.565Z,16.65
2018-04-10T07:24:14.857Z,16.76
2018-04-10T07:25:14.679Z,16.80
2018-04-10T07:26:14.608Z,16.97
2018-04-10T07:27:14.678Z,17.06
2018-04-10T07:28:14.565Z,17.27
2018-04-10T07:29:14.596Z,17.83
2018-04-10T07:30:14.484Z,18.30
2018-04-10T07:31:14.594Z,18.48
2018-04-10T07:32:14.461Z,18.68
2018-04-10T07:33:14.504Z,18.91
2018-04-10T07:34:14.434Z,18.93
2018-04-10T07:35:14.430Z,19.13
2018-04-10T07:36:14.410Z,19.23
2018-04-10T07:37:14.397Z,19.38
2018-04-10T07:38:14.393Z,19.47
2018-04-10T07:39:14.429Z,19.89
2018-04-10T07:40:14.368Z,19.99
2018-04-10T07:41:14.354Z,20.22
2018-04-10T07:42:14.351Z,20.29
2018-04-10T07:43:14.338Z,20.50
2018-04-10T07:44:14.330Z,20.46
2018-04-10T07:45:14.365Z,20.37
2018-04-10T07:46:14.306Z,20.37
2018-04-10T07:47:14.306Z,20.58
2018-04-10T07:48:14.538Z,20.27
2018-04-10T07:49:14.369Z,20.14
2018-04-10T07:50:14.265Z,20.30
2018-04-10T07:51:14.312Z,20.42
2018-04-10T07:52:14.364Z,20.68
2018-04-10T07:53:14.243Z,20.90
2018-04-10T07:54:14.480Z,20.73
2018-04-10T07:55:14.221Z,20.74
2018-04-10T07:56:14.217Z,21.04
2018-04-10T07:57:14.254Z,21.10
2018-04-10T07:58:14.288Z,20.75
2018-04-10T07:59:14.181Z,20.95
2018-04-10T08:00:14.486Z,20.82
2018-04-10T08:01:14.218Z,20.90
2018-04-10T08:02:14.164Z,20.88
2018-04-10T08:03:14.208Z,21.11
2018-04-10T08:05:14.182Z,21.48
2018-04-10T08:06:14.422Z,21.25
2018-04-10T08:07:14.123Z,21.45
2018-04-10T08:08:15.060Z,21.73
2018-04-10T08:09:14.095Z,21.80
2018-04-10T08:11:14.128Z,21.91
2018-04-10T08:12:14.423Z,21.90
2018-04-10T08:13:14.113Z,21.85
2018-04-10T08:14:14.054Z,22.12
2018-04-10T08:15:14.098Z,22.59
2018-04-10T08:16:14.833Z,22.06
2018-04-10T08:17:14.207Z,22.03
2018-04-10T08:18:14.325Z,21.80
2018-04-10T08:19:14.167Z,21.78
2018-04-10T08:20:14.014Z,21.78
2018-04-10T08:21:14.002Z,22.15
2018-04-10T08:22:14.011Z,22.28
2018-04-10T08:23:13.988Z,22.33
2018-04-10T08:24:14.278Z,22.04
2018-04-10T08:25:14.074Z,22.19
2018-04-10T08:26:13.963Z,22.18
2018-04-10T08:27:13.955Z,22.22
2018-04-10T08:28:13.955Z,22.13
2018-04-10T08:29:13.992Z,22.36
2018-04-10T08:31:14.229Z,22.70
2018-04-10T08:32:14.024Z,22.43
2018-04-10T08:33:13.911Z,22.49
2018-04-10T08:34:13.907Z,22.56
2018-04-10T08:35:13.958Z,22.80
2018-04-10T08:36:13.893Z,22.86
2018-04-10T08:37:14.188Z,22.89
2018-04-10T08:38:13.881Z,23.41
2018-04-10T08:40:13.929Z,23.21
2018-04-10T08:42:13.852Z,23.52
2018-04-10T08:43:14.154Z,23.33
2018-04-10T08:44:13.859Z,23.49
2018-04-10T08:45:14.394Z,23.51
2018-04-10T08:46:13.932Z,23.61
2018-04-10T08:47:13.823Z,23.34
2018-04-10T08:48:13.814Z,23.10
2018-04-10T08:49:14.114Z,23.21
2018-04-10T08:50:13.802Z,22.96
2018-04-10T08:53:13.835Z,23.14
2018-04-10T08:54:13.782Z,23.29
2018-04-10T08:55:14.071Z,23.10
2018-04-10T08:57:13.763Z,23.66
2018-04-10T08:58:13.832Z,24.21
2018-04-10T08:59:13.803Z,24.18
2018-04-10T09:00:13.855Z,24.29
2018-04-10T09:02:14.091Z,23.85
2018-04-10T09:03:13.830Z,23.89
2018-04-10T09:04:13.787Z,23.71
2018-04-10T09:05:13.771Z,23.45
2018-04-10T09:06:13.713Z,23.89
2018-04-10T09:07:16.211Z,24.06
2018-04-10T09:09:14.001Z,23.81
2018-04-10T09:10:13.806Z,23.91
2018-04-10T09:11:13.743Z,23.96
2018-04-10T09:13:13.690Z,24.26
2018-04-10T09:14:13.669Z,24.40
2018-04-10T09:15:14.198Z,24.23
2018-04-10T09:18:14.569Z,24.45
2018-04-10T09:19:13.759Z,24.52
2018-04-10T09:20:13.890Z,24.78
2018-04-10T09:21:15.567Z,24.53
2018-04-10T09:22:13.962Z,24.84
2018-04-10T09:23:13.782Z,24.84
2018-04-10T09:25:13.806Z,24.47
2018-04-10T09:26:13.620Z,24.84
2018-04-10T09:27:13.955Z,24.99
2018-04-10T09:28:13.609Z,24.94
2018-04-10T09:29:13.615Z,25.14
2018-04-10T09:32:13.650Z,24.97
2018-04-10T09:33:13.895Z,25.14
2018-04-10T09:34:13.593Z,25.45
2018-04-10T09:35:13.599Z,25.59
2018-04-10T09:36:13.583Z,25.28
2018-04-10T09:37:13.599Z,25.16
2018-04-10T09:38:13.631Z,25.19
2018-04-10T09:39:13.873Z,25.40
2018-04-10T09:40:13.571Z,25.30
2018-04-10T09:41:13.572Z,25.12
2018-04-10T09:42:13.568Z,25.74
2018-04-10T09:44:13.715Z,25.95
2018-04-10T09:45:13.912Z,26.16
2018-04-10T09:48:13.545Z,25.55
2018-04-10T09:50:13.651Z,25.96
2018-04-10T09:51:13.843Z,25.95
2018-04-10T09:52:13.549Z,26.21
2018-04-10T09:53:13.538Z,26.00
2018-04-10T09:54:13.534Z,25.89
2018-04-10T09:56:13.583Z,25.66
2018-04-10T09:57:13.827Z,25.63
2018-04-10T09:58:13.576Z,25.45
2018-04-10T09:59:13.520Z,25.37
2018-04-10T10:00:13.518Z,25.81
2018-04-10T10:01:13.522Z,26.21
2018-04-10T10:02:13.564Z,26.23
2018-04-10T10:03:13.815Z,26.30
2018-04-10T10:05:13.613Z,25.83
2018-04-10T10:06:26.402Z,26.41
2018-04-10T10:07:13.810Z,26.67
2018-04-10T10:08:15.009Z,26.65
2018-04-10T10:09:14.195Z,26.61
2018-04-10T10:11:13.502Z,26.64
2018-04-10T10:12:13.503Z,26.82
2018-04-10T10:13:14.142Z,26.79
2018-04-10T10:14:14.165Z,26.65
2018-04-10T10:15:14.071Z,26.51
2018-04-10T10:16:13.826Z,26.15
2018-04-10T10:17:13.777Z,26.38
2018-04-10T10:19:13.501Z,26.95
2018-04-10T10:20:13.540Z,26.94
2018-04-10T10:21:13.791Z,26.98
2018-04-10T10:23:13.487Z,26.89
2018-04-10T10:24:13.549Z,27.42
2018-04-10T10:25:13.492Z,27.12
2018-04-10T10:26:13.599Z,27.45
2018-04-10T10:27:13.792Z,27.52
2018-04-10T10:28:13.488Z,27.58
2018-04-10T10:30:13.638Z,27.27
2018-04-10T10:32:13.532Z,27.41
2018-04-10T10:33:13.790Z,27.75
2018-04-10T10:34:13.771Z,27.41
2018-04-10T10:35:13.814Z,27.25
2018-04-10T10:36:14.259Z,27.58
2018-04-10T10:37:13.828Z,28.03
2018-04-10T10:38:13.776Z,28.44
2018-04-10T10:39:13.944Z,28.15
2018-04-10T10:40:13.940Z,27.88
2018-04-10T10:41:13.489Z,27.88
2018-04-10T10:42:13.494Z,27.66
2018-04-10T10:43:13.486Z,27.78
2018-04-10T10:44:13.537Z,27.90
2018-04-10T10:45:13.800Z,27.98
2018-04-10T10:46:13.590Z,27.53
2018-04-10T10:47:13.487Z,27.66
2018-04-10T10:48:13.491Z,27.44
2018-04-10T10:49:13.589Z,27.49
2018-04-10T10:50:13.488Z,27.79
2018-04-10T10:51:13.848Z,28.12
2018-04-10T10:52:13.538Z,28.05
2018-04-10T10:55:13.497Z,28.25
2018-04-10T10:56:13.493Z,28.19
2018-04-10T10:59:13.850Z,28.22
2018-04-10T11:00:13.505Z,28.35
2018-04-10T11:01:13.511Z,28.22
2018-04-10T11:02:13.502Z,28.30
2018-04-10T11:03:13.504Z,28.34
2018-04-10T11:05:13.866Z,27.63
2018-04-10T11:06:13.501Z,28.01
2018-04-10T11:07:13.501Z,28.07
2018-04-10T11:08:13.503Z,28.79
2018-04-10T11:09:13.514Z,28.65
2018-04-10T11:12:14.156Z,28.07
2018-04-10T11:14:13.514Z,27.88
2018-04-10T11:15:13.548Z,27.80
2018-04-10T11:16:13.521Z,27.93
2018-04-10T11:17:13.508Z,28.03
2018-04-10T11:18:13.996Z,28.00
2018-04-10T11:19:13.887Z,27.97
2018-04-10T11:21:13.517Z,27.95
2018-04-10T11:22:13.612Z,27.85
2018-04-10T11:23:13.521Z,27.90
2018-04-10T11:24:14.176Z,27.97
2018-04-10T11:25:13.531Z,28.68
2018-04-10T11:26:14.154Z,28.62
2018-04-10T11:28:21.218Z,28.22
2018-04-10T11:30:14.683Z,28.71
2018-04-10T11:31:14.837Z,28.34
2018-04-10T11:32:14.160Z,28.56
2018-04-10T11:33:13.533Z,28.81
2018-04-10T11:34:13.530Z,29.00
2018-04-10T11:35:13.537Z,29.21
2018-04-10T11:36:13.890Z,29.21
2018-04-10T11:37:13.586Z,29.07
2018-04-10T11:38:13.540Z,28.80
2018-04-10T11:39:13.591Z,28.66
2018-04-10T11:40:13.541Z,28.50
2018-04-10T11:41:13.547Z,28.96
2018-04-10T11:42:13.895Z,29.47
2018-04-10T11:43:13.654Z,29.81
2018-04-10T11:44:13.549Z,29.21
2018-04-10T11:45:13.549Z,29.55
2018-04-10T11:46:13.551Z,29.24
2018-04-10T11:48:13.856Z,29.18
2018-04-10T11:49:13.615Z,29.36
2018-04-10T11:50:13.557Z,29.21
2018-04-10T11:51:13.563Z,29.41
2018-04-10T11:52:13.563Z,28.80
2018-04-10T11:53:13.570Z,28.84
2018-04-10T11:54:13.865Z,28.93
2018-04-10T11:55:13.733Z,28.52
2018-04-10T11:56:14.033Z,27.94
2018-04-10T11:57:14.050Z,27.75
2018-04-10T11:58:13.684Z,26.94
2018-04-10T11:59:13.743Z,26.56
2018-04-10T12:00:13.772Z,26.36
2018-04-10T12:01:14.073Z,26.41
2018-04-10T12:02:13.770Z,26.45
2018-04-10T12:03:13.940Z,26.03
2018-04-10T12:04:13.681Z,25.67
2018-04-10T12:05:13.616Z,25.46
2018-04-10T12:06:13.584Z,25.58
2018-04-10T12:07:13.884Z,25.66
2018-04-10T12:08:13.643Z,26.41
2018-04-10T12:09:13.788Z,26.89
2018-04-10T12:10:13.639Z,26.95
2018-04-10T12:11:13.588Z,27.25
2018-04-10T12:12:13.583Z,27.90
2018-04-10T12:13:14.162Z,27.87
2018-04-10T12:15:13.639Z,28.83
2018-04-10T12:18:13.579Z,29.17
2018-04-10T12:21:13.935Z,27.76
2018-04-10T12:22:13.586Z,27.12
2018-04-10T12:23:13.592Z,27.87
2018-04-10T12:24:13.630Z,28.19
2018-04-10T12:25:13.645Z,27.87
2018-04-10T12:26:13.587Z,27.73
2018-04-10T12:27:14.054Z,27.69
2018-04-10T12:28:13.586Z,28.00
2018-04-10T12:29:13.580Z,28.05
2018-04-10T12:30:13.598Z,27.47
2018-04-10T12:31:13.588Z,27.45
2018-04-10T12:32:13.844Z,27.72
2018-04-10T12:33:14.048Z,27.78
2018-04-10T12:34:13.597Z,27.98
2018-04-10T12:35:13.587Z,28.01
2018-04-10T12:37:13.589Z,28.43
2018-04-10T12:38:13.894Z,28.62
2018-04-10T12:39:13.641Z,28.86
2018-04-10T12:40:13.895Z,29.21
2018-04-10T12:41:13.619Z,29.37
2018-04-10T12:42:13.593Z,28.69
2018-04-10T12:43:13.780Z,28.75
2018-04-10T12:44:13.810Z,29.34
2018-04-10T12:45:15.995Z,28.81
2018-04-10T12:46:14.307Z,28.79
2018-04-10T12:48:14.106Z,27.85
2018-04-10T12:49:13.598Z,27.27
2018-04-10T12:50:13.611Z,27.05
2018-04-10T12:51:13.750Z,26.95
2018-04-10T12:52:13.900Z,27.17
2018-04-10T12:53:13.652Z,27.54
2018-04-10T12:54:13.605Z,27.40
2018-04-10T12:55:13.657Z,26.97
2018-04-10T12:56:13.601Z,27.32
2018-04-10T12:57:13.708Z,27.34
2018-04-10T12:58:14.008Z,27.27
2018-04-10T12:59:13.829Z,26.57
2018-04-10T13:00:13.658Z,26.78
2018-04-10T13:01:13.655Z,27.63
2018-04-10T13:02:13.751Z,27.49
2018-04-10T13:03:13.606Z,27.50
2018-04-10T13:04:13.905Z,27.73
2018-04-10T13:06:13.657Z,27.73
2018-04-10T13:07:13.605Z,28.12
2018-04-10T13:08:13.607Z,28.47
2018-04-10T13:09:13.610Z,28.53
2018-04-10T13:10:13.908Z,28.81
2018-04-10T13:12:13.755Z,29.55
2018-04-10T13:13:13.620Z,30.03
2018-04-10T13:14:13.628Z,29.80
2018-04-10T13:15:13.606Z,29.63
2018-04-10T13:16:13.916Z,30.03
2018-04-10T13:17:13.822Z,29.89
2018-04-10T13:18:14.858Z,29.91
2018-04-10T13:20:13.606Z,30.80
2018-04-10T13:21:13.616Z,31.38
2018-04-10T13:22:14.027Z,31.12
2018-04-10T13:23:13.944Z,31.11
2018-04-10T13:24:13.663Z,30.90
2018-04-10T13:25:13.637Z,30.90
2018-04-10T13:26:13.821Z,30.56
2018-04-10T13:27:13.673Z,29.95
2018-04-10T13:28:13.926Z,30.24
2018-04-10T13:29:13.639Z,30.75
2018-04-10T13:30:13.984Z,30.68
2018-04-10T13:31:13.641Z,30.08
2018-04-10T13:32:13.635Z,29.50
2018-04-10T13:33:13.752Z,29.39
2018-04-10T13:34:13.945Z,29.47
2018-04-10T13:35:13.644Z,29.15
2018-04-10T13:36:13.701Z,28.94
2018-04-10T13:37:13.656Z,28.72
2018-04-10T13:38:13.667Z,28.44
2018-04-10T13:39:13.666Z,28.30
2018-04-10T13:40:13.963Z,28.94
2018-04-10T13:41:13.659Z,29.19
2018-04-10T13:42:13.713Z,29.28
2018-04-10T13:43:13.896Z,28.93
2018-04-10T13:44:13.816Z,28.54
2018-04-10T13:45:13.765Z,28.46
2018-04-10T13:46:14.216Z,28.53
2018-04-10T13:48:13.985Z,28.09
2018-04-10T13:49:13.683Z,28.00
2018-04-10T13:51:13.684Z,28.40
2018-04-10T13:52:13.996Z,28.42
2018-04-10T13:54:13.851Z,28.19
2018-04-10T13:55:13.694Z,28.32
2018-04-10T13:56:13.745Z,28.06
2018-04-10T13:57:13.694Z,27.91
2018-04-10T13:58:13.707Z,27.88
2018-04-10T13:59:14.005Z,27.57
2018-04-10T14:01:13.752Z,28.00
2018-04-10T14:02:13.707Z,27.91
2018-04-10T14:03:13.754Z,27.78
2018-04-10T14:04:13.711Z,27.17
2018-04-10T14:05:13.713Z,26.63
2018-04-10T14:06:14.077Z,26.11
2018-04-10T14:08:13.787Z,25.95
2018-04-10T14:09:13.713Z,25.59
2018-04-10T14:11:13.724Z,25.41
2018-04-10T14:12:14.017Z,25.30
2018-04-10T14:14:13.831Z,25.08
2018-04-10T14:15:13.712Z,24.99
2018-04-10T14:16:13.742Z,24.99
2018-04-10T14:18:14.112Z,25.15
2018-04-10T14:19:13.811Z,25.18
2018-04-10T14:20:13.773Z,25.41
2018-04-10T14:21:13.891Z,25.59
2018-04-10T14:23:13.763Z,25.18
2018-04-10T14:24:14.010Z,25.11
2018-04-10T14:27:14.536Z,24.93
2018-04-10T14:28:13.736Z,25.00
2018-04-10T14:29:13.791Z,24.84
2018-04-10T14:30:14.067Z,24.79
2018-04-10T14:34:14.150Z,25.11
2018-04-10T14:35:13.790Z,25.22
2018-04-10T14:36:13.984Z,25.58
2018-04-10T14:37:13.682Z,25.96
2018-04-10T14:38:13.692Z,25.58
2018-04-10T14:39:13.722Z,25.28
2018-04-10T14:41:14.014Z,25.30